sensor_id;sensor_type;location;lat;lon;timestamp;P1;durP1;ratioP1;P2;durP2;ratioP2
29984;SDS011;17387;42.690;23.328;2023-03-01T00:00:36;7.45;;;4.93;;
29984;SDS011;17387;42.690;23.328;2023-03-01T00:03:02;11.98;;;6.82;;
29984;SDS011;17387;42.690;23.328;2023-03-01T00:05:27;72.18;;;45.92;;
29984;SDS011;17387;42.690;23.328;2023-03-01T00:07:53;92.57;;;58.75;;
29984;SDS011;17387;42.690;23.328;2023-03-01T00:10:18;80.00;;;53.75;;
29984;SDS011;17387;42.690;23.328;2023-03-01T00:12:43;73.13;;;51.25;;
29984;SDS011;17387;42.690;23.328;2023-03-01T00:15:09;71.78;;;52.45;;
29984;SDS011;17387;42.690;23.328;2023-03-01T00:17:34;59.72;;;45.97;;
29984;SDS011;17387;42.690;23.328;2023-03-01T00:19:59;43.92;;;32.75;;
29984;SDS011;17387;42.690;23.328;2023-03-01T00:22:26;31.50;;;23.00;;
29984;SDS011;17387;42.690;23.328;2023-03-01T00:24:51;20.73;;;16.38;;
29984;SDS011;17387;42.690;23.328;2023-03-01T00:27:16;14.88;;;10.32;;
29984;SDS011;17387;42.690;23.328;2023-03-01T00:29:41;13.13;;;9.45;;
29984;SDS011;17387;42.690;23.328;2023-03-01T00:32:07;14.40;;;10.88;;
29984;SDS011;17387;42.690;23.328;2023-03-01T00:34:32;21.33;;;15.35;;
29984;SDS011;17387;42.690;23.328;2023-03-01T00:36:57;25.63;;;15.25;;
29984;SDS011;17387;42.690;23.328;2023-03-01T00:39:29;25.95;;;13.73;;
29984;SDS011;17387;42.690;23.328;2023-03-01T00:41:55;23.23;;;11.10;;
29984;SDS011;17387;42.690;23.328;2023-03-01T00:44:21;18.40;;;9.38;;
29984;SDS011;17387;42.690;23.328;2023-03-01T00:46:46;16.73;;;9.15;;
29984;SDS011;17387;42.690;23.328;2023-03-01T00:49:11;15.05;;;7.60;;
29984;SDS011;17387;42.690;23.328;2023-03-01T00:51:37;11.95;;;6.53;;
29984;SDS011;17387;42.690;23.328;2023-03-01T00:54:04;12.77;;;6.30;;
29984;SDS011;17387;42.690;23.328;2023-03-01T00:56:29;11.30;;;5.85;;
29984;SDS011;17387;42.690;23.328;2023-03-01T00:58:55;8.48;;;5.40;;
29984;SDS011;17387;42.690;23.328;2023-03-01T01:01:22;7.28;;;5.00;;
29984;SDS011;17387;42.690;23.328;2023-03-01T01:03:49;6.32;;;4.85;;
29984;SDS011;17387;42.690;23.328;2023-03-01T01:06:18;7.55;;;4.38;;
29984;SDS011;17387;42.690;23.328;2023-03-01T01:08:44;6.93;;;4.50;;
29984;SDS011;17387;42.690;23.328;2023-03-01T01:11:10;6.53;;;4.22;;
29984;SDS011;17387;42.690;23.328;2023-03-01T01:13:35;6.32;;;4.20;;
29984;SDS011;17387;42.690;23.328;2023-03-01T01:16:01;4.90;;;3.50;;
29984;SDS011;17387;42.690;23.328;2023-03-01T01:18:26;4.93;;;3.80;;
29984;SDS011;17387;42.690;23.328;2023-03-01T01:20:53;5.30;;;3.60;;
29984;SDS011;17387;42.690;23.328;2023-03-01T01:23:18;4.95;;;3.55;;
29984;SDS011;17387;42.690;23.328;2023-03-01T01:25:43;5.18;;;3.70;;
29984;SDS011;17387;42.690;23.328;2023-03-01T01:28:09;4.75;;;3.42;;
29984;SDS011;17387;42.690;23.328;2023-03-01T01:30:34;5.53;;;3.58;;
29984;SDS011;17387;42.690;23.328;2023-03-01T01:32:59;4.15;;;3.33;;
29984;SDS011;17387;42.690;23.328;2023-03-01T01:35:24;4.70;;;3.50;;
29984;SDS011;17387;42.690;23.328;2023-03-01T01:37:50;4.15;;;3.50;;
29984;SDS011;17387;42.690;23.328;2023-03-01T01:40:15;3.80;;;3.22;;
29984;SDS011;17387;42.690;23.328;2023-03-01T01:42:40;5.88;;;3.63;;
29984;SDS011;17387;42.690;23.328;2023-03-01T01:48:13;5.50;;;3.40;;
29984;SDS011;17387;42.690;23.328;2023-03-01T01:50:41;4.53;;;3.50;;
29984;SDS011;17387;42.690;23.328;2023-03-01T01:53:09;4.22;;;3.50;;
29984;SDS011;17387;42.690;23.328;2023-03-01T01:55:35;3.67;;;2.95;;
29984;SDS011;17387;42.690;23.328;2023-03-01T01:58:02;3.10;;;2.42;;
29984;SDS011;17387;42.690;23.328;2023-03-01T02:00:29;3.00;;;2.30;;
29984;SDS011;17387;42.690;23.328;2023-03-01T02:02:55;3.08;;;2.30;;
29984;SDS011;17387;42.690;23.328;2023-03-01T02:05:26;2.85;;;2.22;;
29984;SDS011;17387;42.690;23.328;2023-03-01T02:07:53;2.33;;;2.10;;
29984;SDS011;17387;42.690;23.328;2023-03-01T02:10:19;3.53;;;2.30;;
29984;SDS011;17387;42.690;23.328;2023-03-01T02:12:45;3.00;;;2.70;;
29984;SDS011;17387;42.690;23.328;2023-03-01T02:15:10;4.05;;;2.88;;
29984;SDS011;17387;42.690;23.328;2023-03-01T02:17:35;3.03;;;2.70;;
29984;SDS011;17387;42.690;23.328;2023-03-01T02:22:33;3.40;;;2.83;;
29984;SDS011;17387;42.690;23.328;2023-03-01T02:25:18;2.83;;;2.63;;
29984;SDS011;17387;42.690;23.328;2023-03-01T02:27:49;3.00;;;2.70;;
29984;SDS011;17387;42.690;23.328;2023-03-01T02:30:17;3.08;;;2.70;;
29984;SDS011;17387;42.690;23.328;2023-03-01T02:32:42;2.75;;;2.50;;
29984;SDS011;17387;42.690;23.328;2023-03-01T02:35:09;2.80;;;2.60;;
29984;SDS011;17387;42.690;23.328;2023-03-01T02:37:35;3.42;;;2.88;;
29984;SDS011;17387;42.690;23.328;2023-03-01T02:40:02;3.22;;;2.78;;
29984;SDS011;17387;42.690;23.328;2023-03-01T02:42:30;5.05;;;3.08;;
29984;SDS011;17387;42.690;23.328;2023-03-01T02:44:56;4.15;;;3.58;;
29984;SDS011;17387;42.690;23.328;2023-03-01T02:47:22;3.88;;;2.97;;
29984;SDS011;17387;42.690;23.328;2023-03-01T02:49:47;3.50;;;2.80;;
29984;SDS011;17387;42.690;23.328;2023-03-01T02:55:04;4.55;;;3.03;;
29984;SDS011;17387;42.690;23.328;2023-03-01T02:57:31;4.57;;;2.80;;
29984;SDS011;17387;42.690;23.328;2023-03-01T02:59:57;4.53;;;3.22;;
29984;SDS011;17387;42.690;23.328;2023-03-01T03:02:24;3.83;;;3.03;;
29984;SDS011;17387;42.690;23.328;2023-03-01T03:07:27;5.68;;;3.17;;
29984;SDS011;17387;42.690;23.328;2023-03-01T03:09:53;4.60;;;3.50;;
29984;SDS011;17387;42.690;23.328;2023-03-01T03:12:18;4.25;;;3.08;;
29984;SDS011;17387;42.690;23.328;2023-03-01T03:14:43;5.60;;;3.72;;
29984;SDS011;17387;42.690;23.328;2023-03-01T03:17:08;5.82;;;3.45;;
29984;SDS011;17387;42.690;23.328;2023-03-01T03:19:34;5.65;;;3.85;;
29984;SDS011;17387;42.690;23.328;2023-03-01T03:21:59;4.57;;;3.85;;
29984;SDS011;17387;42.690;23.328;2023-03-01T03:24:24;6.05;;;4.30;;
29984;SDS011;17387;42.690;23.328;2023-03-01T03:26:49;5.65;;;3.83;;
29984;SDS011;17387;42.690;23.328;2023-03-01T03:29:15;5.85;;;3.80;;
29984;SDS011;17387;42.690;23.328;2023-03-01T03:31:40;5.97;;;4.13;;
29984;SDS011;17387;42.690;23.328;2023-03-01T03:34:05;5.35;;;4.10;;
29984;SDS011;17387;42.690;23.328;2023-03-01T03:36:30;7.15;;;3.95;;
29984;SDS011;17387;42.690;23.328;2023-03-01T03:38:56;6.80;;;4.20;;
29984;SDS011;17387;42.690;23.328;2023-03-01T03:41:21;5.28;;;3.80;;
29984;SDS011;17387;42.690;23.328;2023-03-01T03:43:46;7.40;;;4.32;;
29984;SDS011;17387;42.690;23.328;2023-03-01T03:46:30;5.40;;;3.83;;
29984;SDS011;17387;42.690;23.328;2023-03-01T03:48:55;5.75;;;3.97;;
29984;SDS011;17387;42.690;23.328;2023-03-01T03:51:21;6.15;;;4.25;;
29984;SDS011;17387;42.690;23.328;2023-03-01T03:53:47;6.70;;;4.22;;
29984;SDS011;17387;42.690;23.328;2023-03-01T03:56:12;7.68;;;4.57;;
29984;SDS011;17387;42.690;23.328;2023-03-01T03:58:38;6.07;;;4.43;;
29984;SDS011;17387;42.690;23.328;2023-03-01T04:01:03;6.70;;;4.80;;
29984;SDS011;17387;42.690;23.328;2023-03-01T04:03:31;7.32;;;4.70;;
29984;SDS011;17387;42.690;23.328;2023-03-01T04:05:57;6.32;;;4.60;;
29984;SDS011;17387;42.690;23.328;2023-03-01T04:08:23;7.18;;;5.00;;
29984;SDS011;17387;42.690;23.328;2023-03-01T04:10:50;7.18;;;5.00;;
29984;SDS011;17387;42.690;23.328;2023-03-01T04:13:16;9.10;;;5.00;;
29984;SDS011;17387;42.690;23.328;2023-03-01T04:15:44;5.38;;;3.95;;
29984;SDS011;17387;42.690;23.328;2023-03-01T04:18:12;5.32;;;4.18;;
29984;SDS011;17387;42.690;23.328;2023-03-01T04:20:37;5.07;;;3.80;;
29984;SDS011;17387;42.690;23.328;2023-03-01T04:23:07;6.07;;;3.95;;
29984;SDS011;17387;42.690;23.328;2023-03-01T04:25:57;4.93;;;3.28;;
29984;SDS011;17387;42.690;23.328;2023-03-01T04:28:22;7.20;;;4.35;;
29984;SDS011;17387;42.690;23.328;2023-03-01T04:30:49;6.13;;;3.78;;
29984;SDS011;17387;42.690;23.328;2023-03-01T04:33:14;5.75;;;3.50;;
29984;SDS011;17387;42.690;23.328;2023-03-01T04:35:40;5.50;;;3.47;;
29984;SDS011;17387;42.690;23.328;2023-03-01T04:38:05;5.10;;;3.65;;
29984;SDS011;17387;42.690;23.328;2023-03-01T04:40:31;5.05;;;3.60;;
29984;SDS011;17387;42.690;23.328;2023-03-01T04:42:56;5.05;;;3.63;;
29984;SDS011;17387;42.690;23.328;2023-03-01T04:45:22;5.72;;;3.85;;
29984;SDS011;17387;42.690;23.328;2023-03-01T04:47:47;7.88;;;3.85;;
29984;SDS011;17387;42.690;23.328;2023-03-01T04:50:14;4.32;;;3.15;;
29984;SDS011;17387;42.690;23.328;2023-03-01T04:52:40;4.40;;;3.70;;
29984;SDS011;17387;42.690;23.328;2023-03-01T04:55:06;5.43;;;4.10;;
29984;SDS011;17387;42.690;23.328;2023-03-01T04:57:32;6.78;;;3.90;;
29984;SDS011;17387;42.690;23.328;2023-03-01T04:59:57;7.75;;;4.28;;
29984;SDS011;17387;42.690;23.328;2023-03-01T05:02:22;7.93;;;4.25;;
29984;SDS011;17387;42.690;23.328;2023-03-01T05:04:49;6.70;;;4.32;;
29984;SDS011;17387;42.690;23.328;2023-03-01T05:07:15;7.88;;;4.55;;
29984;SDS011;17387;42.690;23.328;2023-03-01T05:09:44;6.80;;;4.80;;
29984;SDS011;17387;42.690;23.328;2023-03-01T05:12:10;7.32;;;4.65;;
29984;SDS011;17387;42.690;23.328;2023-03-01T05:14:35;8.45;;;4.80;;
29984;SDS011;17387;42.690;23.328;2023-03-01T05:17:03;7.72;;;5.00;;
29984;SDS011;17387;42.690;23.328;2023-03-01T05:19:31;7.20;;;5.13;;
29984;SDS011;17387;42.690;23.328;2023-03-01T05:21:57;8.98;;;5.25;;
29984;SDS011;17387;42.690;23.328;2023-03-01T05:24:29;10.10;;;6.50;;
29984;SDS011;17387;42.690;23.328;2023-03-01T05:26:55;9.93;;;6.00;;
29984;SDS011;17387;42.690;23.328;2023-03-01T05:29:21;11.77;;;6.18;;
29984;SDS011;17387;42.690;23.328;2023-03-01T05:31:53;11.88;;;7.22;;
29984;SDS011;17387;42.690;23.328;2023-03-01T05:34:19;11.13;;;7.00;;
29984;SDS011;17387;42.690;23.328;2023-03-01T05:36:47;11.00;;;6.25;;
29984;SDS011;17387;42.690;23.328;2023-03-01T05:39:13;15.20;;;6.75;;
29984;SDS011;17387;42.690;23.328;2023-03-01T05:41:38;9.73;;;6.28;;
29984;SDS011;17387;42.690;23.328;2023-03-01T05:44:06;11.05;;;6.20;;
29984;SDS011;17387;42.690;23.328;2023-03-01T05:46:31;13.63;;;7.57;;
29984;SDS011;17387;42.690;23.328;2023-03-01T05:48:56;12.98;;;7.40;;
29984;SDS011;17387;42.690;23.328;2023-03-01T05:51:21;11.63;;;6.43;;
29984;SDS011;17387;42.690;23.328;2023-03-01T05:53:47;9.68;;;6.35;;
29984;SDS011;17387;42.690;23.328;2023-03-01T05:56:12;10.63;;;6.75;;
29984;SDS011;17387;42.690;23.328;2023-03-01T05:58:37;11.18;;;6.22;;
29984;SDS011;17387;42.690;23.328;2023-03-01T06:01:03;10.90;;;6.22;;
29984;SDS011;17387;42.690;23.328;2023-03-01T06:03:29;12.27;;;6.13;;
29984;SDS011;17387;42.690;23.328;2023-03-01T06:05:57;11.50;;;5.70;;
29984;SDS011;17387;42.690;23.328;2023-03-01T06:16:07;10.38;;;5.03;;
29984;SDS011;17387;42.690;23.328;2023-03-01T06:18:33;8.88;;;5.50;;
29984;SDS011;17387;42.690;23.328;2023-03-01T06:20:58;8.95;;;5.68;;
29984;SDS011;17387;42.690;23.328;2023-03-01T06:23:23;10.35;;;4.82;;
29984;SDS011;17387;42.690;23.328;2023-03-01T06:25:49;7.50;;;5.00;;
29984;SDS011;17387;42.690;23.328;2023-03-01T06:28:14;10.13;;;5.45;;
29984;SDS011;17387;42.690;23.328;2023-03-01T06:30:39;12.10;;;5.30;;
29984;SDS011;17387;42.690;23.328;2023-03-01T06:33:05;10.95;;;4.88;;
29984;SDS011;17387;42.690;23.328;2023-03-01T06:35:30;18.15;;;7.75;;
29984;SDS011;17387;42.690;23.328;2023-03-01T06:37:56;13.38;;;7.53;;
29984;SDS011;17387;42.690;23.328;2023-03-01T06:40:22;10.02;;;4.90;;
29984;SDS011;17387;42.690;23.328;2023-03-01T06:42:48;10.75;;;4.60;;
29984;SDS011;17387;42.690;23.328;2023-03-01T06:45:14;5.45;;;3.67;;
29984;SDS011;17387;42.690;23.328;2023-03-01T06:47:39;5.90;;;4.03;;
29984;SDS011;17387;42.690;23.328;2023-03-01T06:50:04;6.68;;;3.92;;
29984;SDS011;17387;42.690;23.328;2023-03-01T06:52:30;6.55;;;4.13;;
29984;SDS011;17387;42.690;23.328;2023-03-01T06:54:55;8.60;;;4.32;;
29984;SDS011;17387;42.690;23.328;2023-03-01T06:57:20;7.97;;;4.50;;
29984;SDS011;17387;42.690;23.328;2023-03-01T06:59:46;8.18;;;4.80;;
29984;SDS011;17387;42.690;23.328;2023-03-01T07:02:12;10.02;;;4.95;;
29984;SDS011;17387;42.690;23.328;2023-03-01T07:04:37;9.00;;;4.97;;
29984;SDS011;17387;42.690;23.328;2023-03-01T07:07:03;8.05;;;4.60;;
29984;SDS011;17387;42.690;23.328;2023-03-01T07:09:28;8.95;;;4.32;;
29984;SDS011;17387;42.690;23.328;2023-03-01T07:11:53;8.02;;;4.05;;
29984;SDS011;17387;42.690;23.328;2023-03-01T07:14:18;5.70;;;3.63;;
29984;SDS011;17387;42.690;23.328;2023-03-01T07:16:44;7.30;;;3.85;;
29984;SDS011;17387;42.690;23.328;2023-03-01T07:19:10;7.57;;;3.90;;
29984;SDS011;17387;42.690;23.328;2023-03-01T07:21:35;5.25;;;3.58;;
29984;SDS011;17387;42.690;23.328;2023-03-01T07:24:02;8.25;;;3.92;;
29984;SDS011;17387;42.690;23.328;2023-03-01T07:26:28;7.25;;;3.38;;
29984;SDS011;17387;42.690;23.328;2023-03-01T07:28:53;7.15;;;4.00;;
29984;SDS011;17387;42.690;23.328;2023-03-01T07:31:18;6.13;;;3.95;;
29984;SDS011;17387;42.690;23.328;2023-03-01T07:33:43;6.30;;;4.20;;
29984;SDS011;17387;42.690;23.328;2023-03-01T07:36:09;7.38;;;3.88;;
29984;SDS011;17387;42.690;23.328;2023-03-01T07:38:34;10.27;;;3.80;;
29984;SDS011;17387;42.690;23.328;2023-03-01T07:41:00;10.27;;;5.35;;
29984;SDS011;17387;42.690;23.328;2023-03-01T07:43:26;7.50;;;4.50;;
29984;SDS011;17387;42.690;23.328;2023-03-01T07:45:51;9.90;;;4.55;;
29984;SDS011;17387;42.690;23.328;2023-03-01T07:48:17;12.25;;;5.80;;
29984;SDS011;17387;42.690;23.328;2023-03-01T07:50:45;8.00;;;3.95;;
29984;SDS011;17387;42.690;23.328;2023-03-01T07:53:30;6.95;;;4.15;;
29984;SDS011;17387;42.690;23.328;2023-03-01T07:58:30;8.35;;;4.30;;
29984;SDS011;17387;42.690;23.328;2023-03-01T08:00:55;6.57;;;3.70;;
29984;SDS011;17387;42.690;23.328;2023-03-01T08:03:21;7.70;;;4.07;;
29984;SDS011;17387;42.690;23.328;2023-03-01T08:05:46;12.52;;;4.22;;
29984;SDS011;17387;42.690;23.328;2023-03-01T08:08:11;8.95;;;4.65;;
29984;SDS011;17387;42.690;23.328;2023-03-01T08:10:37;6.93;;;3.60;;
29984;SDS011;17387;42.690;23.328;2023-03-01T08:13:02;7.30;;;3.50;;
29984;SDS011;17387;42.690;23.328;2023-03-01T08:15:27;6.03;;;3.33;;
29984;SDS011;17387;42.690;23.328;2023-03-01T08:17:55;6.35;;;3.38;;
29984;SDS011;17387;42.690;23.328;2023-03-01T08:20:20;6.32;;;3.90;;
29984;SDS011;17387;42.690;23.328;2023-03-01T08:22:46;6.28;;;3.78;;
29984;SDS011;17387;42.690;23.328;2023-03-01T08:25:11;6.93;;;3.50;;
29984;SDS011;17387;42.690;23.328;2023-03-01T08:27:36;10.20;;;3.70;;
29984;SDS011;17387;42.690;23.328;2023-03-01T08:30:02;8.98;;;5.50;;
29984;SDS011;17387;42.690;23.328;2023-03-01T08:32:27;12.90;;;6.63;;
29984;SDS011;17387;42.690;23.328;2023-03-01T08:34:52;7.25;;;4.00;;
29984;SDS011;17387;42.690;23.328;2023-03-01T08:37:21;7.25;;;4.28;;
29984;SDS011;17387;42.690;23.328;2023-03-01T08:39:46;13.23;;;4.75;;
29984;SDS011;17387;42.690;23.328;2023-03-01T08:42:11;9.57;;;3.60;;
29984;SDS011;17387;42.690;23.328;2023-03-01T08:44:37;7.88;;;3.88;;
29984;SDS011;17387;42.690;23.328;2023-03-01T08:47:02;6.88;;;4.00;;
29984;SDS011;17387;42.690;23.328;2023-03-01T08:49:30;6.75;;;3.70;;
29984;SDS011;17387;42.690;23.328;2023-03-01T08:51:57;8.55;;;4.32;;
29984;SDS011;17387;42.690;23.328;2023-03-01T08:54:22;5.70;;;4.15;;
29984;SDS011;17387;42.690;23.328;2023-03-01T08:56:48;8.98;;;4.65;;
29984;SDS011;17387;42.690;23.328;2023-03-01T08:59:14;11.07;;;6.13;;
29984;SDS011;17387;42.690;23.328;2023-03-01T09:01:40;8.52;;;4.68;;
29984;SDS011;17387;42.690;23.328;2023-03-01T09:04:08;10.30;;;5.90;;
29984;SDS011;17387;42.690;23.328;2023-03-01T09:06:33;13.60;;;6.85;;
29984;SDS011;17387;42.690;23.328;2023-03-01T09:08:59;6.93;;;4.72;;
29984;SDS011;17387;42.690;23.328;2023-03-01T09:11:24;9.38;;;4.53;;
29984;SDS011;17387;42.690;23.328;2023-03-01T09:13:50;6.05;;;4.20;;
29984;SDS011;17387;42.690;23.328;2023-03-01T09:16:16;8.63;;;5.05;;
29984;SDS011;17387;42.690;23.328;2023-03-01T09:18:42;5.47;;;3.20;;
29984;SDS011;17387;42.690;23.328;2023-03-01T09:21:15;16.58;;;8.38;;
29984;SDS011;17387;42.690;23.328;2023-03-01T09:23:44;10.00;;;6.10;;
29984;SDS011;17387;42.690;23.328;2023-03-01T09:26:36;4.75;;;3.00;;
29984;SDS011;17387;42.690;23.328;2023-03-01T09:29:01;4.30;;;3.00;;
29984;SDS011;17387;42.690;23.328;2023-03-01T09:31:26;7.85;;;4.72;;
29984;SDS011;17387;42.690;23.328;2023-03-01T09:33:52;9.38;;;5.18;;
29984;SDS011;17387;42.690;23.328;2023-03-01T09:36:19;6.82;;;3.42;;
29984;SDS011;17387;42.690;23.328;2023-03-01T09:38:45;7.03;;;3.30;;
29984;SDS011;17387;42.690;23.328;2023-03-01T09:46:09;6.72;;;3.75;;
29984;SDS011;17387;42.690;23.328;2023-03-01T09:48:41;5.00;;;2.70;;
29984;SDS011;17387;42.690;23.328;2023-03-01T09:51:08;5.60;;;2.33;;
29984;SDS011;17387;42.690;23.328;2023-03-01T09:53:37;3.63;;;2.63;;
29984;SDS011;17387;42.690;23.328;2023-03-01T09:56:11;4.13;;;2.22;;
29984;SDS011;17387;42.690;23.328;2023-03-01T10:04:04;6.10;;;2.28;;
29984;SDS011;17387;42.690;23.328;2023-03-01T10:06:33;5.10;;;2.50;;
29984;SDS011;17387;42.690;23.328;2023-03-01T10:09:10;6.80;;;2.97;;
29984;SDS011;17387;42.690;23.328;2023-03-01T10:11:38;6.78;;;3.40;;
29984;SDS011;17387;42.690;23.328;2023-03-01T10:14:12;9.20;;;4.35;;
29984;SDS011;17387;42.690;23.328;2023-03-01T10:19:06;5.33;;;2.87;;
29984;SDS011;17387;42.690;23.328;2023-03-01T10:21:35;6.85;;;2.88;;
29984;SDS011;17387;42.690;23.328;2023-03-01T10:24:15;8.00;;;4.22;;
29984;SDS011;17387;42.690;23.328;2023-03-01T10:29:08;9.00;;;5.35;;
29984;SDS011;17387;42.690;23.328;2023-03-01T10:31:54;16.00;;;3.92;;
29984;SDS011;17387;42.690;23.328;2023-03-01T10:34:20;7.50;;;3.92;;
29984;SDS011;17387;42.690;23.328;2023-03-01T10:36:49;3.97;;;2.63;;
29984;SDS011;17387;42.690;23.328;2023-03-01T10:39:20;7.05;;;3.63;;
29984;SDS011;17387;42.690;23.328;2023-03-01T10:41:54;7.30;;;4.10;;
29984;SDS011;17387;42.690;23.328;2023-03-01T10:47:03;7.43;;;4.38;;
29984;SDS011;17387;42.690;23.328;2023-03-01T10:49:29;3.85;;;2.55;;
29984;SDS011;17387;42.690;23.328;2023-03-01T10:51:54;8.85;;;4.03;;
29984;SDS011;17387;42.690;23.328;2023-03-01T10:56:51;6.28;;;2.80;;
29984;SDS011;17387;42.690;23.328;2023-03-01T10:59:20;8.63;;;4.57;;
29984;SDS011;17387;42.690;23.328;2023-03-01T11:01:46;14.55;;;6.75;;
29984;SDS011;17387;42.690;23.328;2023-03-01T11:04:25;7.15;;;2.67;;
29984;SDS011;17387;42.690;23.328;2023-03-01T11:06:57;11.38;;;3.80;;
29984;SDS011;17387;42.690;23.328;2023-03-01T11:09:23;7.57;;;3.80;;
29984;SDS011;17387;42.690;23.328;2023-03-01T11:11:53;10.30;;;4.32;;
29984;SDS011;17387;42.690;23.328;2023-03-01T11:14:21;15.85;;;6.97;;
29984;SDS011;17387;42.690;23.328;2023-03-01T11:16:47;9.82;;;4.95;;
29984;SDS011;17387;42.690;23.328;2023-03-01T11:19:17;17.88;;;9.13;;
29984;SDS011;17387;42.690;23.328;2023-03-01T11:24:09;8.68;;;4.25;;
29984;SDS011;17387;42.690;23.328;2023-03-01T11:26:37;7.90;;;3.60;;
29984;SDS011;17387;42.690;23.328;2023-03-01T11:29:05;8.18;;;3.85;;
29984;SDS011;17387;42.690;23.328;2023-03-01T11:31:32;9.75;;;4.68;;
29984;SDS011;17387;42.690;23.328;2023-03-01T11:34:11;9.38;;;4.82;;
29984;SDS011;17387;42.690;23.328;2023-03-01T11:36:43;5.82;;;3.53;;
29984;SDS011;17387;42.690;23.328;2023-03-01T11:41:36;6.35;;;3.63;;
29984;SDS011;17387;42.690;23.328;2023-03-01T11:44:11;10.55;;;4.32;;
29984;SDS011;17387;42.690;23.328;2023-03-01T11:49:15;14.23;;;4.93;;
29984;SDS011;17387;42.690;23.328;2023-03-01T11:54:20;4.93;;;2.70;;
29984;SDS011;17387;42.690;23.328;2023-03-01T11:57:13;8.00;;;4.35;;
29984;SDS011;17387;42.690;23.328;2023-03-01T12:05:08;6.53;;;4.53;;
29984;SDS011;17387;42.690;23.328;2023-03-01T12:07:53;7.50;;;3.92;;
29984;SDS011;17387;42.690;23.328;2023-03-01T12:10:22;13.05;;;8.00;;
29984;SDS011;17387;42.690;23.328;2023-03-01T12:23:26;13.20;;;7.00;;
29984;SDS011;17387;42.690;23.328;2023-03-01T12:36:12;8.45;;;5.20;;
29984;SDS011;17387;42.690;23.328;2023-03-01T12:41:20;8.73;;;4.80;;
29984;SDS011;17387;42.690;23.328;2023-03-01T12:43:50;12.40;;;5.05;;
29984;SDS011;17387;42.690;23.328;2023-03-01T12:49:02;6.18;;;4.13;;
29984;SDS011;17387;42.690;23.328;2023-03-01T12:51:30;7.93;;;4.97;;
29984;SDS011;17387;42.690;23.328;2023-03-01T12:53:57;7.30;;;4.85;;
29984;SDS011;17387;42.690;23.328;2023-03-01T12:56:24;10.43;;;5.93;;
29984;SDS011;17387;42.690;23.328;2023-03-01T12:58:59;7.78;;;4.40;;
29984;SDS011;17387;42.690;23.328;2023-03-01T13:04:08;13.80;;;6.82;;
29984;SDS011;17387;42.690;23.328;2023-03-01T13:11:49;13.05;;;7.00;;
29984;SDS011;17387;42.690;23.328;2023-03-01T13:16:45;7.30;;;4.35;;
29984;SDS011;17387;42.690;23.328;2023-03-01T13:19:26;9.77;;;5.57;;
29984;SDS011;17387;42.690;23.328;2023-03-01T13:21:54;10.10;;;4.47;;
29984;SDS011;17387;42.690;23.328;2023-03-01T13:24:33;10.27;;;4.88;;
29984;SDS011;17387;42.690;23.328;2023-03-01T13:29:45;11.75;;;5.35;;
29984;SDS011;17387;42.690;23.328;2023-03-01T13:32:24;7.10;;;4.57;;
29984;SDS011;17387;42.690;23.328;2023-03-01T13:34:51;7.57;;;3.92;;
29984;SDS011;17387;42.690;23.328;2023-03-01T13:37:21;8.82;;;4.40;;
29984;SDS011;17387;42.690;23.328;2023-03-01T13:39:46;6.10;;;3.90;;
29984;SDS011;17387;42.690;23.328;2023-03-01T13:44:56;7.53;;;4.10;;
29984;SDS011;17387;42.690;23.328;2023-03-01T13:47:22;8.10;;;3.90;;
29984;SDS011;17387;42.690;23.328;2023-03-01T13:49:49;8.63;;;3.83;;
29984;SDS011;17387;42.690;23.328;2023-03-01T13:57:12;63.38;;;25.52;;
29984;SDS011;17387;42.690;23.328;2023-03-01T13:59:48;8.52;;;3.90;;
29984;SDS011;17387;42.690;23.328;2023-03-01T14:02:13;9.32;;;3.83;;
29984;SDS011;17387;42.690;23.328;2023-03-01T14:04:40;8.48;;;3.63;;
29984;SDS011;17387;42.690;23.328;2023-03-01T14:17:18;15.98;;;6.93;;
29984;SDS011;17387;42.690;23.328;2023-03-01T14:19:47;11.43;;;5.93;;
29984;SDS011;17387;42.690;23.328;2023-03-01T14:24:39;7.38;;;3.70;;
29984;SDS011;17387;42.690;23.328;2023-03-01T14:27:09;8.02;;;4.05;;
29984;SDS011;17387;42.690;23.328;2023-03-01T14:29:37;8.05;;;3.75;;
29984;SDS011;17387;42.690;23.328;2023-03-01T14:34:58;5.97;;;3.97;;
29984;SDS011;17387;42.690;23.328;2023-03-01T14:39:49;7.65;;;3.85;;
29984;SDS011;17387;42.690;23.328;2023-03-01T14:42:15;7.68;;;3.90;;
29984;SDS011;17387;42.690;23.328;2023-03-01T14:44:42;11.40;;;5.25;;
29984;SDS011;17387;42.690;23.328;2023-03-01T14:47:10;7.45;;;3.90;;
29984;SDS011;17387;42.690;23.328;2023-03-01T14:49:36;8.13;;;3.95;;
29984;SDS011;17387;42.690;23.328;2023-03-01T14:52:03;8.55;;;4.43;;
29984;SDS011;17387;42.690;23.328;2023-03-01T14:54:42;9.70;;;4.85;;
29984;SDS011;17387;42.690;23.328;2023-03-01T14:57:14;7.20;;;3.65;;
29984;SDS011;17387;42.690;23.328;2023-03-01T14:59:40;7.40;;;4.40;;
29984;SDS011;17387;42.690;23.328;2023-03-01T15:02:08;8.55;;;3.70;;
29984;SDS011;17387;42.690;23.328;2023-03-01T15:04:35;7.25;;;3.38;;
29984;SDS011;17387;42.690;23.328;2023-03-01T15:07:00;10.57;;;5.45;;
29984;SDS011;17387;42.690;23.328;2023-03-01T15:09:29;8.32;;;4.22;;
29984;SDS011;17387;42.690;23.328;2023-03-01T15:11:56;10.77;;;4.45;;
29984;SDS011;17387;42.690;23.328;2023-03-01T15:14:28;19.77;;;6.88;;
29984;SDS011;17387;42.690;23.328;2023-03-01T15:17:03;16.85;;;7.68;;
29984;SDS011;17387;42.690;23.328;2023-03-01T15:19:28;11.40;;;5.43;;
29984;SDS011;17387;42.690;23.328;2023-03-01T15:21:54;13.45;;;5.28;;
29984;SDS011;17387;42.690;23.328;2023-03-01T15:24:22;11.43;;;4.93;;
29984;SDS011;17387;42.690;23.328;2023-03-01T15:26:52;14.15;;;5.55;;
29984;SDS011;17387;42.690;23.328;2023-03-01T15:29:23;19.70;;;8.70;;
29984;SDS011;17387;42.690;23.328;2023-03-01T15:34:27;10.02;;;5.22;;
29984;SDS011;17387;42.690;23.328;2023-03-01T15:36:53;16.58;;;8.00;;
29984;SDS011;17387;42.690;23.328;2023-03-01T15:39:38;13.65;;;5.85;;
29984;SDS011;17387;42.690;23.328;2023-03-01T15:42:05;9.88;;;4.93;;
29984;SDS011;17387;42.690;23.328;2023-03-01T15:44:32;10.80;;;5.25;;
29984;SDS011;17387;42.690;23.328;2023-03-01T15:46:58;9.55;;;4.57;;
29984;SDS011;17387;42.690;23.328;2023-03-01T15:51:55;9.50;;;5.30;;
29984;SDS011;17387;42.690;23.328;2023-03-01T15:54:21;11.70;;;6.95;;
29984;SDS011;17387;42.690;23.328;2023-03-01T15:56:47;9.98;;;5.50;;
29984;SDS011;17387;42.690;23.328;2023-03-01T15:59:12;14.80;;;7.30;;
29984;SDS011;17387;42.690;23.328;2023-03-01T16:01:40;12.60;;;5.85;;
29984;SDS011;17387;42.690;23.328;2023-03-01T16:04:06;11.27;;;5.68;;
29984;SDS011;17387;42.690;23.328;2023-03-01T16:06:31;11.48;;;5.35;;
29984;SDS011;17387;42.690;23.328;2023-03-01T16:08:56;9.02;;;4.65;;
29984;SDS011;17387;42.690;23.328;2023-03-01T16:11:22;8.43;;;3.80;;
29984;SDS011;17387;42.690;23.328;2023-03-01T16:13:47;11.20;;;5.10;;
29984;SDS011;17387;42.690;23.328;2023-03-01T16:16:13;12.00;;;5.03;;
29984;SDS011;17387;42.690;23.328;2023-03-01T16:18:44;9.93;;;5.50;;
29984;SDS011;17387;42.690;23.328;2023-03-01T16:21:18;15.68;;;7.00;;
29984;SDS011;17387;42.690;23.328;2023-03-01T16:23:45;15.50;;;6.18;;
29984;SDS011;17387;42.690;23.328;2023-03-01T16:26:11;9.80;;;4.68;;
29984;SDS011;17387;42.690;23.328;2023-03-01T16:28:37;10.60;;;4.78;;
29984;SDS011;17387;42.690;23.328;2023-03-01T16:31:03;8.00;;;4.13;;
29984;SDS011;17387;42.690;23.328;2023-03-01T16:33:29;18.17;;;8.50;;
29984;SDS011;17387;42.690;23.328;2023-03-01T16:35:54;10.38;;;5.13;;
29984;SDS011;17387;42.690;23.328;2023-03-01T16:38:20;17.00;;;6.50;;